sensor_id;sensor_type;location;lat;lon;timestamp;P1;durP1;ratioP1;P2;durP2;ratioP2
74375;SDS011;62812;55.188;61.302;2023-03-12T00:00:54;1.52;;;0.50;;
74375;SDS011;62812;55.188;61.302;2023-03-12T00:03:20;4.88;;;0.88;;
74375;SDS011;62812;55.188;61.302;2023-03-12T00:05:49;2.25;;;0.70;;
74375;SDS011;62812;55.188;61.302;2023-03-12T00:08:17;4.90;;;0.90;;
74375;SDS011;62812;55.188;61.302;2023-03-12T00:10:44;3.85;;;0.93;;
74375;SDS011;62812;55.188;61.302;2023-03-12T00:13:10;2.35;;;0.60;;
74375;SDS011;62812;55.188;61.302;2023-03-12T00:15:37;2.53;;;0.70;;
74375;SDS011;62812;55.188;61.302;2023-03-12T00:18:03;5.10;;;0.90;;
74375;SDS011;62812;55.188;61.302;2023-03-12T00:20:30;2.25;;;0.60;;
74375;SDS011;62812;55.188;61.302;2023-03-12T00:22:57;2.75;;;0.70;;
74375;SDS011;62812;55.188;61.302;2023-03-12T00:25:25;2.15;;;0.60;;
74375;SDS011;62812;55.188;61.302;2023-03-12T00:27:51;2.15;;;0.50;;
74375;SDS011;62812;55.188;61.302;2023-03-12T00:30:18;2.13;;;0.50;;
74375;SDS011;62812;55.188;61.302;2023-03-12T00:32:44;5.53;;;0.77;;
74375;SDS011;62812;55.188;61.302;2023-03-12T00:35:11;2.33;;;0.52;;
74375;SDS011;62812;55.188;61.302;2023-03-12T00:37:37;2.13;;;0.52;;
74375;SDS011;62812;55.188;61.302;2023-03-12T00:40:04;3.00;;;0.70;;
74375;SDS011;62812;55.188;61.302;2023-03-12T00:42:34;1.90;;;0.57;;
74375;SDS011;62812;55.188;61.302;2023-03-12T00:45:01;2.45;;;0.70;;
74375;SDS011;62812;55.188;61.302;2023-03-12T00:47:27;2.65;;;0.85;;
74375;SDS011;62812;55.188;61.302;2023-03-12T00:49:54;2.05;;;0.70;;
74375;SDS011;62812;55.188;61.302;2023-03-12T00:52:20;3.13;;;1.00;;
74375;SDS011;62812;55.188;61.302;2023-03-12T00:54:47;7.68;;;0.90;;
74375;SDS011;62812;55.188;61.302;2023-03-12T00:57:13;3.10;;;0.80;;
74375;SDS011;62812;55.188;61.302;2023-03-12T00:59:41;4.22;;;0.93;;
74375;SDS011;62812;55.188;61.302;2023-03-12T01:02:08;2.80;;;0.60;;
74375;SDS011;62812;55.188;61.302;2023-03-12T01:04:34;10.63;;;1.10;;
74375;SDS011;62812;55.188;61.302;2023-03-12T01:07:00;6.63;;;0.90;;
74375;SDS011;62812;55.188;61.302;2023-03-12T01:09:27;7.93;;;1.05;;
74375;SDS011;62812;55.188;61.302;2023-03-12T01:11:53;3.28;;;0.88;;
74375;SDS011;62812;55.188;61.302;2023-03-12T01:14:20;2.85;;;0.68;;
74375;SDS011;62812;55.188;61.302;2023-03-12T01:16:48;7.63;;;1.10;;
74375;SDS011;62812;55.188;61.302;2023-03-12T01:19:14;6.85;;;1.05;;
74375;SDS011;62812;55.188;61.302;2023-03-12T01:21:41;4.80;;;1.10;;
74375;SDS011;62812;55.188;61.302;2023-03-12T01:24:07;3.72;;;1.00;;
74375;SDS011;62812;55.188;61.302;2023-03-12T01:26:33;7.82;;;2.35;;
74375;SDS011;62812;55.188;61.302;2023-03-12T01:29:00;9.45;;;1.10;;
74375;SDS011;62812;55.188;61.302;2023-03-12T01:31:26;8.82;;;1.15;;
74375;SDS011;62812;55.188;61.302;2023-03-12T01:33:54;3.08;;;0.90;;
74375;SDS011;62812;55.188;61.302;2023-03-12T01:36:21;3.58;;;0.90;;
74375;SDS011;62812;55.188;61.302;2023-03-12T01:38:49;5.90;;;1.00;;
74375;SDS011;62812;55.188;61.302;2023-03-12T01:41:16;4.85;;;0.90;;
74375;SDS011;62812;55.188;61.302;2023-03-12T01:43:44;3.38;;;1.10;;
74375;SDS011;62812;55.188;61.302;2023-03-12T01:46:22;4.82;;;0.90;;
74375;SDS011;62812;55.188;61.302;2023-03-12T01:48:53;8.43;;;0.90;;
74375;SDS011;62812;55.188;61.302;2023-03-12T01:51:24;2.90;;;0.85;;
74375;SDS011;62812;55.188;61.302;2023-03-12T01:53:55;4.38;;;0.90;;
74375;SDS011;62812;55.188;61.302;2023-03-12T01:56:24;4.13;;;1.05;;
74375;SDS011;62812;55.188;61.302;2023-03-12T01:58:54;2.92;;;0.80;;
74375;SDS011;62812;55.188;61.302;2023-03-12T02:01:23;5.28;;;0.82;;
74375;SDS011;62812;55.188;61.302;2023-03-12T02:03:50;2.65;;;0.80;;
74375;SDS011;62812;55.188;61.302;2023-03-12T02:06:21;2.95;;;0.70;;
74375;SDS011;62812;55.188;61.302;2023-03-12T02:08:50;2.00;;;0.60;;
74375;SDS011;62812;55.188;61.302;2023-03-12T02:11:17;2.13;;;0.70;;
74375;SDS011;62812;55.188;61.302;2023-03-12T02:13:44;3.58;;;0.77;;
74375;SDS011;62812;55.188;61.302;2023-03-12T02:16:11;6.43;;;0.90;;
74375;SDS011;62812;55.188;61.302;2023-03-12T02:18:37;3.97;;;1.10;;
74375;SDS011;62812;55.188;61.302;2023-03-12T02:21:07;3.28;;;0.80;;
74375;SDS011;62812;55.188;61.302;2023-03-12T02:23:41;5.82;;;0.70;;
74375;SDS011;62812;55.188;61.302;2023-03-12T02:26:14;2.47;;;0.73;;
74375;SDS011;62812;55.188;61.302;2023-03-12T02:28:41;4.43;;;0.57;;
74375;SDS011;62812;55.188;61.302;2023-03-12T02:31:10;4.60;;;0.65;;
74375;SDS011;62812;55.188;61.302;2023-03-12T02:33:39;3.92;;;0.77;;
74375;SDS011;62812;55.188;61.302;2023-03-12T02:36:05;6.50;;;0.98;;
74375;SDS011;62812;55.188;61.302;2023-03-12T02:38:34;18.92;;;2.10;;
74375;SDS011;62812;55.188;61.302;2023-03-12T02:41:09;21.45;;;3.47;;
74375;SDS011;62812;55.188;61.302;2023-03-12T02:43:40;16.70;;;2.92;;
74375;SDS011;62812;55.188;61.302;2023-03-12T02:46:09;28.15;;;3.92;;
74375;SDS011;62812;55.188;61.302;2023-03-12T02:48:36;22.50;;;3.38;;
74375;SDS011;62812;55.188;61.302;2023-03-12T02:51:07;27.25;;;3.88;;
74375;SDS011;62812;55.188;61.302;2023-03-12T02:53:34;18.02;;;4.18;;
74375;SDS011;62812;55.188;61.302;2023-03-12T02:56:00;39.17;;;4.90;;
74375;SDS011;62812;55.188;61.302;2023-03-12T02:58:27;44.40;;;4.45;;
74375;SDS011;62812;55.188;61.302;2023-03-12T03:00:55;16.65;;;3.25;;
74375;SDS011;62812;55.188;61.302;2023-03-12T03:03:21;16.58;;;3.55;;
74375;SDS011;62812;55.188;61.302;2023-03-12T03:05:48;29.13;;;4.05;;
74375;SDS011;62812;55.188;61.302;2023-03-12T03:08:15;23.75;;;4.53;;
74375;SDS011;62812;55.188;61.302;2023-03-12T03:10:41;19.15;;;3.95;;
74375;SDS011;62812;55.188;61.302;2023-03-12T03:13:10;23.20;;;3.40;;
74375;SDS011;62812;55.188;61.302;2023-03-12T03:15:40;18.83;;;2.95;;
74375;SDS011;62812;55.188;61.302;2023-03-12T03:18:08;11.15;;;2.25;;
74375;SDS011;62812;55.188;61.302;2023-03-12T03:20:35;12.90;;;2.38;;
74375;SDS011;62812;55.188;61.302;2023-03-12T03:23:02;21.80;;;4.82;;
74375;SDS011;62812;55.188;61.302;2023-03-12T03:25:29;22.70;;;3.17;;
74375;SDS011;62812;55.188;61.302;2023-03-12T03:27:58;18.25;;;3.25;;
74375;SDS011;62812;55.188;61.302;2023-03-12T03:30:25;15.75;;;4.68;;
74375;SDS011;62812;55.188;61.302;2023-03-12T03:32:51;18.35;;;4.57;;
74375;SDS011;62812;55.188;61.302;2023-03-12T03:35:22;20.88;;;4.20;;
74375;SDS011;62812;55.188;61.302;2023-03-12T03:37:51;26.17;;;4.70;;
74375;SDS011;62812;55.188;61.302;2023-03-12T03:40:21;21.33;;;4.40;;
74375;SDS011;62812;55.188;61.302;2023-03-12T03:42:48;18.98;;;4.30;;
74375;SDS011;62812;55.188;61.302;2023-03-12T03:45:14;19.25;;;3.85;;
74375;SDS011;62812;55.188;61.302;2023-03-12T03:47:42;23.27;;;4.05;;
74375;SDS011;62812;55.188;61.302;2023-03-12T03:50:12;28.40;;;7.85;;
74375;SDS011;62812;55.188;61.302;2023-03-12T03:52:40;12.55;;;2.95;;
74375;SDS011;62812;55.188;61.302;2023-03-12T03:55:06;26.40;;;4.38;;
74375;SDS011;62812;55.188;61.302;2023-03-12T03:57:33;14.40;;;3.50;;
74375;SDS011;62812;55.188;61.302;2023-03-12T04:00:03;25.23;;;3.92;;
74375;SDS011;62812;55.188;61.302;2023-03-12T04:02:34;13.43;;;3.40;;
74375;SDS011;62812;55.188;61.302;2023-03-12T04:05:01;25.60;;;4.07;;
74375;SDS011;62812;55.188;61.302;2023-03-12T04:07:30;15.63;;;3.75;;
74375;SDS011;62812;55.188;61.302;2023-03-12T04:09:58;15.10;;;3.55;;
74375;SDS011;62812;55.188;61.302;2023-03-12T04:12:24;24.35;;;4.75;;
74375;SDS011;62812;55.188;61.302;2023-03-12T04:14:54;21.55;;;3.50;;
74375;SDS011;62812;55.188;61.302;2023-03-12T04:17:23;18.05;;;3.42;;
74375;SDS011;62812;55.188;61.302;2023-03-12T04:19:50;23.30;;;3.83;;
74375;SDS011;62812;55.188;61.302;2023-03-12T04:22:16;27.75;;;3.70;;
74375;SDS011;62812;55.188;61.302;2023-03-12T04:24:43;17.52;;;4.05;;
74375;SDS011;62812;55.188;61.302;2023-03-12T04:27:14;16.40;;;4.07;;
74375;SDS011;62812;55.188;61.302;2023-03-12T04:29:40;18.25;;;3.70;;
74375;SDS011;62812;55.188;61.302;2023-03-12T04:32:10;26.67;;;4.45;;
74375;SDS011;62812;55.188;61.302;2023-03-12T04:34:37;16.63;;;3.42;;
74375;SDS011;62812;55.188;61.302;2023-03-12T04:37:06;14.75;;;3.70;;
74375;SDS011;62812;55.188;61.302;2023-03-12T04:39:33;15.80;;;3.88;;
74375;SDS011;62812;55.188;61.302;2023-03-12T04:42:00;14.05;;;3.58;;
74375;SDS011;62812;55.188;61.302;2023-03-12T04:44:27;17.38;;;3.30;;
74375;SDS011;62812;55.188;61.302;2023-03-12T04:46:54;25.23;;;3.40;;
74375;SDS011;62812;55.188;61.302;2023-03-12T04:49:23;14.77;;;2.70;;
74375;SDS011;62812;55.188;61.302;2023-03-12T04:51:50;13.38;;;3.08;;
74375;SDS011;62812;55.188;61.302;2023-03-12T04:54:16;15.02;;;3.08;;
74375;SDS011;62812;55.188;61.302;2023-03-12T04:56:47;18.88;;;3.58;;
74375;SDS011;62812;55.188;61.302;2023-03-12T04:59:17;14.80;;;3.00;;
74375;SDS011;62812;55.188;61.302;2023-03-12T05:01:47;11.70;;;3.05;;
74375;SDS011;62812;55.188;61.302;2023-03-12T05:04:13;14.65;;;3.22;;
74375;SDS011;62812;55.188;61.302;2023-03-12T05:06:44;23.45;;;3.80;;
74375;SDS011;62812;55.188;61.302;2023-03-12T05:09:13;13.98;;;3.13;;
74375;SDS011;62812;55.188;61.302;2023-03-12T05:11:40;12.70;;;2.92;;
74375;SDS011;62812;55.188;61.302;2023-03-12T05:14:07;17.48;;;2.92;;
74375;SDS011;62812;55.188;61.302;2023-03-12T05:16:35;14.52;;;3.20;;
74375;SDS011;62812;55.188;61.302;2023-03-12T05:19:03;12.02;;;2.50;;
74375;SDS011;62812;55.188;61.302;2023-03-12T05:21:30;9.77;;;2.55;;
74375;SDS011;62812;55.188;61.302;2023-03-12T05:23:58;11.95;;;3.00;;
74375;SDS011;62812;55.188;61.302;2023-03-12T05:26:26;8.52;;;2.53;;
74375;SDS011;62812;55.188;61.302;2023-03-12T05:28:56;13.88;;;3.08;;
74375;SDS011;62812;55.188;61.302;2023-03-12T05:31:24;13.35;;;2.83;;
74375;SDS011;62812;55.188;61.302;2023-03-12T05:33:51;8.93;;;3.17;;
74375;SDS011;62812;55.188;61.302;2023-03-12T05:36:23;8.35;;;3.25;;
74375;SDS011;62812;55.188;61.302;2023-03-12T05:39:01;12.70;;;3.00;;
74375;SDS011;62812;55.188;61.302;2023-03-12T05:41:40;8.43;;;2.53;;
74375;SDS011;62812;55.188;61.302;2023-03-12T05:44:10;9.75;;;2.97;;
74375;SDS011;62812;55.188;61.302;2023-03-12T05:46:40;7.60;;;2.20;;
74375;SDS011;62812;55.188;61.302;2023-03-12T05:49:29;9.77;;;2.70;;
74375;SDS011;62812;55.188;61.302;2023-03-12T05:52:03;7.97;;;2.20;;
74375;SDS011;62812;55.188;61.302;2023-03-12T05:54:33;7.75;;;2.38;;
74375;SDS011;62812;55.188;61.302;2023-03-12T05:57:05;12.05;;;2.55;;
74375;SDS011;62812;55.188;61.302;2023-03-12T05:59:33;13.75;;;2.53;;
74375;SDS011;62812;55.188;61.302;2023-03-12T06:02:00;11.85;;;2.72;;
74375;SDS011;62812;55.188;61.302;2023-03-12T06:04:31;11.35;;;2.97;;
74375;SDS011;62812;55.188;61.302;2023-03-12T06:07:05;12.80;;;2.78;;
74375;SDS011;62812;55.188;61.302;2023-03-12T06:09:37;9.98;;;2.75;;
74375;SDS011;62812;55.188;61.302;2023-03-12T06:12:04;8.82;;;2.53;;
74375;SDS011;62812;55.188;61.302;2023-03-12T06:14:33;8.27;;;2.20;;
74375;SDS011;62812;55.188;61.302;2023-03-12T06:17:06;10.13;;;2.78;;
74375;SDS011;62812;55.188;61.302;2023-03-12T06:19:38;8.15;;;2.42;;
74375;SDS011;62812;55.188;61.302;2023-03-12T06:22:11;9.55;;;2.15;;
74375;SDS011;62812;55.188;61.302;2023-03-12T06:24:40;10.63;;;2.20;;
74375;SDS011;62812;55.188;61.302;2023-03-12T06:27:07;10.45;;;2.50;;
74375;SDS011;62812;55.188;61.302;2023-03-12T06:29:37;12.43;;;2.50;;
74375;SDS011;62812;55.188;61.302;2023-03-12T06:32:32;8.95;;;2.40;;
74375;SDS011;62812;55.188;61.302;2023-03-12T06:35:00;6.88;;;2.38;;
74375;SDS011;62812;55.188;61.302;2023-03-12T06:37:31;7.18;;;2.45;;
74375;SDS011;62812;55.188;61.302;2023-03-12T06:39:58;10.43;;;1.98;;
74375;SDS011;62812;55.188;61.302;2023-03-12T06:42:25;7.95;;;1.95;;
74375;SDS011;62812;55.188;61.302;2023-03-12T06:45:01;7.43;;;1.83;;
74375;SDS011;62812;55.188;61.302;2023-03-12T06:47:32;4.85;;;1.58;;
74375;SDS011;62812;55.188;61.302;2023-03-12T06:50:02;7.60;;;1.95;;
74375;SDS011;62812;55.188;61.302;2023-03-12T06:52:29;7.43;;;1.83;;
74375;SDS011;62812;55.188;61.302;2023-03-12T06:54:57;8.13;;;1.73;;
74375;SDS011;62812;55.188;61.302;2023-03-12T06:57:23;7.30;;;2.05;;
74375;SDS011;62812;55.188;61.302;2023-03-12T06:59:50;6.38;;;2.30;;
74375;SDS011;62812;55.188;61.302;2023-03-12T07:02:16;7.03;;;1.52;;
74375;SDS011;62812;55.188;61.302;2023-03-12T07:04:43;7.95;;;1.73;;
74375;SDS011;62812;55.188;61.302;2023-03-12T07:07:10;10.57;;;1.90;;
74375;SDS011;62812;55.188;61.302;2023-03-12T07:09:36;8.77;;;2.17;;
74375;SDS011;62812;55.188;61.302;2023-03-12T07:12:07;16.10;;;2.50;;
74375;SDS011;62812;55.188;61.302;2023-03-12T07:14:35;11.10;;;2.00;;
74375;SDS011;62812;55.188;61.302;2023-03-12T07:17:07;12.85;;;1.73;;
74375;SDS011;62812;55.188;61.302;2023-03-12T07:19:33;5.75;;;1.70;;
74375;SDS011;62812;55.188;61.302;2023-03-12T07:22:01;20.40;;;2.35;;
74375;SDS011;62812;55.188;61.302;2023-03-12T07:24:27;11.30;;;2.30;;
74375;SDS011;62812;55.188;61.302;2023-03-12T07:26:54;9.50;;;2.30;;
74375;SDS011;62812;55.188;61.302;2023-03-12T07:29:22;13.02;;;2.40;;
74375;SDS011;62812;55.188;61.302;2023-03-12T07:31:48;7.70;;;2.10;;
74375;SDS011;62812;55.188;61.302;2023-03-12T07:34:15;19.73;;;3.08;;
74375;SDS011;62812;55.188;61.302;2023-03-12T07:36:41;7.35;;;1.95;;
74375;SDS011;62812;55.188;61.302;2023-03-12T07:39:16;8.13;;;1.90;;
74375;SDS011;62812;55.188;61.302;2023-03-12T07:41:44;10.82;;;2.47;;
74375;SDS011;62812;55.188;61.302;2023-03-12T07:44:10;12.70;;;2.22;;
74375;SDS011;62812;55.188;61.302;2023-03-12T07:46:38;10.77;;;2.30;;
74375;SDS011;62812;55.188;61.302;2023-03-12T07:49:07;9.00;;;1.90;;
74375;SDS011;62812;55.188;61.302;2023-03-12T07:51:33;13.32;;;2.45;;
74375;SDS011;62812;55.188;61.302;2023-03-12T07:54:00;8.20;;;2.05;;
74375;SDS011;62812;55.188;61.302;2023-03-12T07:56:26;11.63;;;2.45;;
74375;SDS011;62812;55.188;61.302;2023-03-12T07:58:53;11.00;;;2.45;;
74375;SDS011;62812;55.188;61.302;2023-03-12T08:01:20;12.15;;;2.40;;
74375;SDS011;62812;55.188;61.302;2023-03-12T08:03:48;8.57;;;2.03;;
74375;SDS011;62812;55.188;61.302;2023-03-12T08:06:17;13.98;;;2.40;;
74375;SDS011;62812;55.188;61.302;2023-03-12T08:08:44;16.67;;;2.50;;
74375;SDS011;62812;55.188;61.302;2023-03-12T08:11:11;17.35;;;2.88;;
74375;SDS011;62812;55.188;61.302;2023-03-12T08:13:38;12.05;;;2.22;;
74375;SDS011;62812;55.188;61.302;2023-03-12T08:16:04;9.27;;;2.03;;
74375;SDS011;62812;55.188;61.302;2023-03-12T08:18:34;9.98;;;2.50;;
74375;SDS011;62812;55.188;61.302;2023-03-12T08:21:02;6.13;;;1.90;;
74375;SDS011;62812;55.188;61.302;2023-03-12T08:23:29;4.68;;;1.60;;
74375;SDS011;62812;55.188;61.302;2023-03-12T08:26:00;5.63;;;1.98;;
74375;SDS011;62812;55.188;61.302;2023-03-12T08:28:26;9.05;;;2.35;;
74375;SDS011;62812;55.188;61.302;2023-03-12T08:30:53;6.57;;;1.65;;
74375;SDS011;62812;55.188;61.302;2023-03-12T08:33:23;7.30;;;2.28;;
74375;SDS011;62812;55.188;61.302;2023-03-12T08:35:49;7.10;;;1.80;;
74375;SDS011;62812;55.188;61.302;2023-03-12T08:38:17;6.15;;;1.75;;
74375;SDS011;62812;55.188;61.302;2023-03-12T08:40:44;8.82;;;1.77;;
74375;SDS011;62812;55.188;61.302;2023-03-12T08:43:11;7.03;;;2.00;;
74375;SDS011;62812;55.188;61.302;2023-03-12T08:45:38;4.13;;;1.38;;
74375;SDS011;62812;55.188;61.302;2023-03-12T08:48:05;6.93;;;1.70;;
74375;SDS011;62812;55.188;61.302;2023-03-12T08:50:32;6.55;;;1.30;;
74375;SDS011;62812;55.188;61.302;2023-03-12T08:53:01;6.30;;;1.45;;
74375;SDS011;62812;55.188;61.302;2023-03-12T08:55:38;5.35;;;1.95;;
74375;SDS011;62812;55.188;61.302;2023-03-12T08:58:04;6.78;;;1.80;;
74375;SDS011;62812;55.188;61.302;2023-03-12T09:00:31;3.45;;;1.00;;
74375;SDS011;62812;55.188;61.302;2023-03-12T09:03:00;6.55;;;1.95;;
74375;SDS011;62812;55.188;61.302;2023-03-12T09:05:27;6.20;;;1.90;;
74375;SDS011;62812;55.188;61.302;2023-03-12T09:07:57;5.38;;;1.80;;
74375;SDS011;62812;55.188;61.302;2023-03-12T09:10:24;7.65;;;1.80;;
74375;SDS011;62812;55.188;61.302;2023-03-12T09:12:53;8.50;;;1.85;;
74375;SDS011;62812;55.188;61.302;2023-03-12T09:15:20;10.75;;;2.00;;
74375;SDS011;62812;55.188;61.302;2023-03-12T09:17:49;7.63;;;3.10;;
74375;SDS011;62812;55.188;61.302;2023-03-12T09:20:25;10.85;;;1.77;;
74375;SDS011;62812;55.188;61.302;2023-03-12T09:22:52;5.47;;;1.90;;
74375;SDS011;62812;55.188;61.302;2023-03-12T09:25:20;6.43;;;1.60;;
74375;SDS011;62812;55.188;61.302;2023-03-12T09:27:48;7.88;;;1.80;;
74375;SDS011;62812;55.188;61.302;2023-03-12T09:30:19;7.10;;;1.75;;
74375;SDS011;62812;55.188;61.302;2023-03-12T09:32:46;4.82;;;1.67;;
74375;SDS011;62812;55.188;61.302;2023-03-12T09:35:13;6.18;;;2.00;;
74375;SDS011;62812;55.188;61.302;2023-03-12T09:37:46;10.48;;;1.55;;
74375;SDS011;62812;55.188;61.302;2023-03-12T09:40:14;5.32;;;1.40;;
74375;SDS011;62812;55.188;61.302;2023-03-12T09:42:43;8.48;;;1.80;;
74375;SDS011;62812;55.188;61.302;2023-03-12T09:45:14;5.00;;;1.15;;
74375;SDS011;62812;55.188;61.302;2023-03-12T09:47:47;4.75;;;1.35;;
74375;SDS011;62812;55.188;61.302;2023-03-12T09:50:20;6.68;;;1.38;;
74375;SDS011;62812;55.188;61.302;2023-03-12T09:52:52;7.00;;;1.35;;
74375;SDS011;62812;55.188;61.302;2023-03-12T09:55:22;5.55;;;1.38;;
74375;SDS011;62812;55.188;61.302;2023-03-12T09:57:52;5.60;;;1.30;;
74375;SDS011;62812;55.188;61.302;2023-03-12T10:00:21;8.77;;;1.40;;
74375;SDS011;62812;55.188;61.302;2023-03-12T10:03:13;4.18;;;1.10;;
74375;SDS011;62812;55.188;61.302;2023-03-12T10:06:05;6.55;;;1.52;;
74375;SDS011;62812;55.188;61.302;2023-03-12T10:08:45;4.85;;;1.05;;
74375;SDS011;62812;55.188;61.302;2023-03-12T10:11:29;5.45;;;1.80;;
74375;SDS011;62812;55.188;61.302;2023-03-12T10:16:58;6.38;;;2.47;;
74375;SDS011;62812;55.188;61.302;2023-03-12T10:19:38;5.93;;;1.58;;
74375;SDS011;62812;55.188;61.302;2023-03-12T10:22:38;3.95;;;1.42;;
74375;SDS011;62812;55.188;61.302;2023-03-12T10:25:16;4.35;;;1.30;;
74375;SDS011;62812;55.188;61.302;2023-03-12T10:28:03;10.18;;;1.70;;
74375;SDS011;62812;55.188;61.302;2023-03-12T10:30:38;9.25;;;1.25;;
74375;SDS011;62812;55.188;61.302;2023-03-12T10:33:10;5.55;;;1.73;;
74375;SDS011;62812;55.188;61.302;2023-03-12T10:35:42;9.70;;;1.60;;
74375;SDS011;62812;55.188;61.302;2023-03-12T10:38:09;5.45;;;1.42;;
74375;SDS011;62812;55.188;61.302;2023-03-12T10:40:44;5.07;;;1.50;;
74375;SDS011;62812;55.188;61.302;2023-03-12T10:43:12;5.78;;;1.45;;
74375;SDS011;62812;55.188;61.302;2023-03-12T10:45:39;8.10;;;1.95;;
74375;SDS011;62812;55.188;61.302;2023-03-12T10:48:17;7.53;;;2.00;;
74375;SDS011;62812;55.188;61.302;2023-03-12T10:50:52;9.10;;;2.42;;
74375;SDS011;62812;55.188;61.302;2023-03-12T10:53:27;14.55;;;2.97;;
74375;SDS011;62812;55.188;61.302;2023-03-12T10:55:57;8.40;;;2.92;;
74375;SDS011;62812;55.188;61.302;2023-03-12T10:58:29;9.50;;;2.60;;
74375;SDS011;62812;55.188;61.302;2023-03-12T11:00:58;9.82;;;2.47;;
74375;SDS011;62812;55.188;61.302;2023-03-12T11:03:27;10.23;;;2.80;;
74375;SDS011;62812;55.188;61.302;2023-03-12T11:05:57;11.18;;;2.75;;
74375;SDS011;62812;55.188;61.302;2023-03-12T11:10:55;6.25;;;1.67;;
74375;SDS011;62812;55.188;61.302;2023-03-12T11:13:24;10.23;;;2.67;;
74375;SDS011;62812;55.188;61.302;2023-03-12T11:15:56;6.88;;;1.83;;
74375;SDS011;62812;55.188;61.302;2023-03-12T11:18:25;9.77;;;2.67;;
74375;SDS011;62812;55.188;61.302;2023-03-12T11:21:12;5.00;;;1.63;;
74375;SDS011;62812;55.188;61.302;2023-03-12T11:23:42;6.15;;;1.80;;
74375;SDS011;62812;55.188;61.302;2023-03-12T11:26:11;4.95;;;1.60;;
74375;SDS011;62812;55.188;61.302;2023-03-12T11:28:42;5.45;;;2.10;;
74375;SDS011;62812;55.188;61.302;2023-03-12T11:31:14;5.93;;;1.98;;
74375;SDS011;62812;55.188;61.302;2023-03-12T11:33:45;6.28;;;2.20;;
74375;SDS011;62812;55.188;61.302;2023-03-12T11:36:20;8.90;;;1.88;;
74375;SDS011;62812;55.188;61.302;2023-03-12T11:38:56;7.05;;;1.83;;
74375;SDS011;62812;55.188;61.302;2023-03-12T11:41:46;4.47;;;1.05;;
74375;SDS011;62812;55.188;61.302;2023-03-12T11:44:25;4.30;;;1.55;;
74375;SDS011;62812;55.188;61.302;2023-03-12T11:47:05;5.30;;;2.05;;
74375;SDS011;62812;55.188;61.302;2023-03-12T11:49:51;5.20;;;1.98;;
74375;SDS011;62812;55.188;61.302;2023-03-12T11:52:39;7.15;;;2.30;;
74375;SDS011;62812;55.188;61.302;2023-03-12T11:55:17;9.18;;;1.95;;
74375;SDS011;62812;55.188;61.302;2023-03-12T11:57:56;4.40;;;1.63;;
74375;SDS011;62812;55.188;61.302;2023-03-12T12:00:32;9.05;;;2.30;;
74375;SDS011;62812;55.188;61.302;2023-03-12T12:03:12;9.05;;;2.40;;
74375;SDS011;62812;55.188;61.302;2023-03-12T12:06:10;6.63;;;2.28;;
74375;SDS011;62812;55.188;61.302;2023-03-12T12:11:51;6.10;;;1.60;;
74375;SDS011;62812;55.188;61.302;2023-03-12T12:14:29;14.80;;;2.05;;
74375;SDS011;62812;55.188;61.302;2023-03-12T12:17:14;6.25;;;1.98;;
74375;SDS011;62812;55.188;61.302;2023-03-12T12:19:52;9.45;;;2.28;;
74375;SDS011;62812;55.188;61.302;2023-03-12T12:22:37;4.07;;;1.60;;
74375;SDS011;62812;55.188;61.302;2023-03-12T12:25:22;5.88;;;2.13;;
74375;SDS011;62812;55.188;61.302;2023-03-12T12:28:07;8.70;;;2.03;;
74375;SDS011;62812;55.188;61.302;2023-03-12T12:30:49;7.55;;;2.20;;
74375;SDS011;62812;55.188;61.302;2023-03-12T12:33:28;9.32;;;2.08;;
74375;SDS011;62812;55.188;61.302;2023-03-12T12:36:06;6.68;;;2.00;;
74375;SDS011;62812;55.188;61.302;2023-03-12T12:38:36;6.53;;;1.35;;
74375;SDS011;62812;55.188;61.302;2023-03-12T12:41:09;8.20;;;2.03;;
74375;SDS011;62812;55.188;61.302;2023-03-12T12:43:40;6.15;;;2.40;;
74375;SDS011;62812;55.188;61.302;2023-03-12T12:46:10;8.93;;;2.00;;
74375;SDS011;62812;55.188;61.302;2023-03-12T12:48:40;7.80;;;2.20;;
74375;SDS011;62812;55.188;61.302;2023-03-12T12:51:09;8.18;;;2.05;;
74375;SDS011;62812;55.188;61.302;2023-03-12T12:53:39;7.28;;;1.83;;
74375;SDS011;62812;55.188;61.302;2023-03-12T12:56:15;7.60;;;2.45;;
74375;SDS011;62812;55.188;61.302;2023-03-12T13:01:46;9.93;;;2.05;;
74375;SDS011;62812;55.188;61.302;2023-03-12T13:04:14;6.97;;;1.90;;
74375;SDS011;62812;55.188;61.302;2023-03-12T13:06:52;7.07;;;1.85;;
74375;SDS011;62812;55.188;61.302;2023-03-12T13:09:22;7.07;;;1.90;;
74375;SDS011;62812;55.188;61.302;2023-03-12T13:12:17;5.35;;;1.90;;
74375;SDS011;62812;55.188;61.302;2023-03-12T13:14:49;7.18;;;2.03;;
74375;SDS011;62812;55.188;61.302;2023-03-12T13:20:11;8.73;;;1.80;;
74375;SDS011;62812;55.188;61.302;2023-03-12T13:25:49;7.47;;;2.35;;
74375;SDS011;62812;55.188;61.302;2023-03-12T13:28:34;4.80;;;2.10;;
74375;SDS011;62812;55.188;61.302;2023-03-12T13:31:33;8.15;;;2.58;;
74375;SDS011;62812;55.188;61.302;2023-03-12T13:41:56;6.38;;;2.25;;
74375;SDS011;62812;55.188;61.302;2023-03-12T13:43:55;8.77;;;2.50;;
74375;SDS011;62812;55.188;61.302;2023-03-12T13:46:33;7.38;;;2.08;;
74375;SDS011;62812;55.188;61.302;2023-03-12T13:49:04;6.65;;;2.35;;
74375;SDS011;62812;55.188;61.302;2023-03-12T13:51:42;5.60;;;1.92;;
74375;SDS011;62812;55.188;61.302;2023-03-12T13:54:15;4.25;;;1.50;;
74375;SDS011;62812;55.188;61.302;2023-03-12T13:56:52;10.27;;;2.05;;
74375;SDS011;62812;55.188;61.302;2023-03-12T13:59:26;6.57;;;1.92;;
74375;SDS011;62812;55.188;61.302;2023-03-12T14:01:56;5.50;;;1.70;;
74375;SDS011;62812;55.188;61.302;2023-03-12T14:04:28;5.38;;;1.98;;
74375;SDS011;62812;55.188;61.302;2023-03-12T14:07:04;5.22;;;1.70;;
74375;SDS011;62812;55.188;61.302;2023-03-12T14:09:50;4.32;;;1.60;;
74375;SDS011;62812;55.188;61.302;2023-03-12T14:12:26;8.68;;;2.10;;
74375;SDS011;62812;55.188;61.302;2023-03-12T14:15:06;8.68;;;1.80;;
74375;SDS011;62812;55.188;61.302;2023-03-12T14:17:50;12.85;;;1.55;;
74375;SDS011;62812;55.188;61.302;2023-03-12T14:20:21;5.38;;;2.20;;
74375;SDS011;62812;55.188;61.302;2023-03-12T14:22:49;8.75;;;2.08;;
74375;SDS011;62812;55.188;61.302;2023-03-12T14:25:22;7.00;;;2.17;;
74375;SDS011;62812;55.188;61.302;2023-03-12T14:27:58;9.25;;;1.92;;
74375;SDS011;62812;55.188;61.302;2023-03-12T14:30:40;5.28;;;1.75;;
74375;SDS011;62812;55.188;61.302;2023-03-12T14:33:13;10.70;;;2.20;;
74375;SDS011;62812;55.188;61.302;2023-03-12T14:38:21;4.05;;;1.52;;
74375;SDS011;62812;55.188;61.302;2023-03-12T14:40:54;4.60;;;1.75;;
74375;SDS011;62812;55.188;61.302;2023-03-12T14:43:28;11.40;;;2.10;;
74375;SDS011;62812;55.188;61.302;2023-03-12T14:45:59;6.60;;;1.80;;
74375;SDS011;62812;55.188;61.302;2023-03-12T14:48:31;8.23;;;1.70;;
74375;SDS011;62812;55.188;61.302;2023-03-12T14:51:17;11.52;;;2.33;;
74375;SDS011;62812;55.188;61.302;2023-03-12T14:53:47;12.13;;;1.90;;
74375;SDS011;62812;55.188;61.302;2023-03-12T14:56:21;9.90;;;2.40;;
74375;SDS011;62812;55.188;61.302;2023-03-12T14:58:49;7.20;;;2.47;;
74375;SDS011;62812;55.188;61.302;2023-03-12T15:01:19;6.13;;;1.80;;
74375;SDS011;62812;55.188;61.302;2023-03-12T15:03:52;6.15;;;1.83;;
74375;SDS011;62812;55.188;61.302;2023-03-12T15:06:22;14.38;;;2.25;;
74375;SDS011;62812;55.188;61.302;2023-03-12T15:08:54;5.43;;;1.80;;
74375;SDS011;62812;55.188;61.302;2023-03-12T15:11:21;9.65;;;2.10;;
74375;SDS011;62812;55.188;61.302;2023-03-12T15:13:50;7.22;;;2.20;;
74375;SDS011;62812;55.188;61.302;2023-03-12T15:16:20;5.43;;;1.67;;
74375;SDS011;62812;55.188;61.302;2023-03-12T15:18:50;7.15;;;2.13;;